sensor_id;sensor_type;location;lat;lon;timestamp;P1;durP1;ratioP1;P2;durP2;ratioP2
17784;SDS011;9016;53.582;10.062;2023-07-30T00:01:11;0.30;;;0.30;;
17784;SDS011;9016;53.582;10.062;2023-07-30T00:03:39;0.30;;;0.30;;
17784;SDS011;9016;53.582;10.062;2023-07-30T00:06:07;0.30;;;0.30;;
17784;SDS011;9016;53.582;10.062;2023-07-30T00:08:36;0.30;;;0.30;;
17784;SDS011;9016;53.582;10.062;2023-07-30T00:11:04;0.30;;;0.30;;
17784;SDS011;9016;53.582;10.062;2023-07-30T00:13:32;0.20;;;0.20;;
17784;SDS011;9016;53.582;10.062;2023-07-30T00:16:00;0.30;;;0.30;;
17784;SDS011;9016;53.582;10.062;2023-07-30T00:18:28;0.30;;;0.30;;
17784;SDS011;9016;53.582;10.062;2023-07-30T00:20:56;0.30;;;0.30;;
17784;SDS011;9016;53.582;10.062;2023-07-30T00:23:24;0.30;;;0.30;;
17784;SDS011;9016;53.582;10.062;2023-07-30T00:25:53;0.20;;;0.20;;
17784;SDS011;9016;53.582;10.062;2023-07-30T00:28:21;0.30;;;0.30;;
17784;SDS011;9016;53.582;10.062;2023-07-30T00:30:49;0.30;;;0.30;;
17784;SDS011;9016;53.582;10.062;2023-07-30T00:33:17;0.20;;;0.20;;
17784;SDS011;9016;53.582;10.062;2023-07-30T00:35:45;0.30;;;0.30;;
17784;SDS011;9016;53.582;10.062;2023-07-30T00:38:13;0.30;;;0.30;;
17784;SDS011;9016;53.582;10.062;2023-07-30T00:40:42;0.30;;;0.30;;
17784;SDS011;9016;53.582;10.062;2023-07-30T00:43:11;0.20;;;0.20;;
17784;SDS011;9016;53.582;10.062;2023-07-30T00:45:40;0.30;;;0.30;;
17784;SDS011;9016;53.582;10.062;2023-07-30T00:48:10;0.30;;;0.30;;
17784;SDS011;9016;53.582;10.062;2023-07-30T00:50:38;0.30;;;0.30;;
17784;SDS011;9016;53.582;10.062;2023-07-30T00:53:07;0.20;;;0.20;;
17784;SDS011;9016;53.582;10.062;2023-07-30T00:55:36;0.28;;;0.28;;
17784;SDS011;9016;53.582;10.062;2023-07-30T00:58:04;0.20;;;0.20;;
17784;SDS011;9016;53.582;10.062;2023-07-30T01:00:34;0.20;;;0.20;;
17784;SDS011;9016;53.582;10.062;2023-07-30T01:03:02;0.20;;;0.20;;
17784;SDS011;9016;53.582;10.062;2023-07-30T01:05:30;0.30;;;0.30;;
17784;SDS011;9016;53.582;10.062;2023-07-30T01:07:58;0.30;;;0.30;;
17784;SDS011;9016;53.582;10.062;2023-07-30T01:10:26;0.30;;;0.30;;
17784;SDS011;9016;53.582;10.062;2023-07-30T01:12:58;0.30;;;0.30;;
17784;SDS011;9016;53.582;10.062;2023-07-30T01:15:28;0.30;;;0.30;;
17784;SDS011;9016;53.582;10.062;2023-07-30T01:17:58;0.30;;;0.30;;
17784;SDS011;9016;53.582;10.062;2023-07-30T01:20:29;0.30;;;0.30;;
17784;SDS011;9016;53.582;10.062;2023-07-30T01:22:58;0.20;;;0.20;;
17784;SDS011;9016;53.582;10.062;2023-07-30T01:25:27;0.30;;;0.30;;
17784;SDS011;9016;53.582;10.062;2023-07-30T01:27:59;0.30;;;0.30;;
17784;SDS011;9016;53.582;10.062;2023-07-30T01:30:29;0.30;;;0.30;;
17784;SDS011;9016;53.582;10.062;2023-07-30T01:33:00;0.30;;;0.30;;
17784;SDS011;9016;53.582;10.062;2023-07-30T01:35:29;0.30;;;0.30;;
17784;SDS011;9016;53.582;10.062;2023-07-30T01:37:59;0.27;;;0.27;;
17784;SDS011;9016;53.582;10.062;2023-07-30T01:40:31;0.28;;;0.28;;
17784;SDS011;9016;53.582;10.062;2023-07-30T01:42:59;0.30;;;0.30;;
17784;SDS011;9016;53.582;10.062;2023-07-30T01:45:28;0.20;;;0.20;;
17784;SDS011;9016;53.582;10.062;2023-07-30T01:47:55;0.20;;;0.20;;
17784;SDS011;9016;53.582;10.062;2023-07-30T01:50:23;0.20;;;0.20;;
17784;SDS011;9016;53.582;10.062;2023-07-30T01:52:51;0.30;;;0.30;;
17784;SDS011;9016;53.582;10.062;2023-07-30T01:55:21;0.30;;;0.30;;
17784;SDS011;9016;53.582;10.062;2023-07-30T01:57:49;0.28;;;0.28;;
17784;SDS011;9016;53.582;10.062;2023-07-30T02:00:17;0.25;;;0.25;;
17784;SDS011;9016;53.582;10.062;2023-07-30T02:02:45;0.20;;;0.20;;
17784;SDS011;9016;53.582;10.062;2023-07-30T02:05:13;0.20;;;0.20;;
17784;SDS011;9016;53.582;10.062;2023-07-30T02:07:41;0.30;;;0.30;;
17784;SDS011;9016;53.582;10.062;2023-07-30T02:10:09;0.30;;;0.30;;
17784;SDS011;9016;53.582;10.062;2023-07-30T02:12:38;0.30;;;0.30;;
17784;SDS011;9016;53.582;10.062;2023-07-30T02:15:07;0.30;;;0.30;;
17784;SDS011;9016;53.582;10.062;2023-07-30T02:17:35;0.20;;;0.20;;
17784;SDS011;9016;53.582;10.062;2023-07-30T02:20:03;0.30;;;0.30;;
17784;SDS011;9016;53.582;10.062;2023-07-30T02:22:32;0.30;;;0.30;;
17784;SDS011;9016;53.582;10.062;2023-07-30T02:25:00;0.30;;;0.30;;
17784;SDS011;9016;53.582;10.062;2023-07-30T02:27:28;0.30;;;0.30;;
17784;SDS011;9016;53.582;10.062;2023-07-30T02:29:58;0.30;;;0.30;;
17784;SDS011;9016;53.582;10.062;2023-07-30T02:32:26;0.20;;;0.20;;
17784;SDS011;9016;53.582;10.062;2023-07-30T02:34:54;0.30;;;0.30;;
17784;SDS011;9016;53.582;10.062;2023-07-30T02:37:21;0.30;;;0.30;;
17784;SDS011;9016;53.582;10.062;2023-07-30T02:39:49;0.30;;;0.30;;
17784;SDS011;9016;53.582;10.062;2023-07-30T02:42:17;0.20;;;0.20;;
17784;SDS011;9016;53.582;10.062;2023-07-30T02:44:45;0.30;;;0.30;;
17784;SDS011;9016;53.582;10.062;2023-07-30T02:47:14;0.30;;;0.30;;
17784;SDS011;9016;53.582;10.062;2023-07-30T02:49:42;0.30;;;0.30;;
17784;SDS011;9016;53.582;10.062;2023-07-30T02:52:10;0.20;;;0.20;;
17784;SDS011;9016;53.582;10.062;2023-07-30T02:54:38;0.30;;;0.30;;
17784;SDS011;9016;53.582;10.062;2023-07-30T02:57:06;0.30;;;0.30;;
17784;SDS011;9016;53.582;10.062;2023-07-30T02:59:34;0.20;;;0.20;;
17784;SDS011;9016;53.582;10.062;2023-07-30T03:02:04;0.20;;;0.20;;
17784;SDS011;9016;53.582;10.062;2023-07-30T03:04:33;0.20;;;0.20;;
17784;SDS011;9016;53.582;10.062;2023-07-30T03:07:02;0.20;;;0.20;;
17784;SDS011;9016;53.582;10.062;2023-07-30T03:09:30;0.20;;;0.20;;
17784;SDS011;9016;53.582;10.062;2023-07-30T03:11:58;0.30;;;0.30;;
17784;SDS011;9016;53.582;10.062;2023-07-30T03:14:26;0.20;;;0.20;;
17784;SDS011;9016;53.582;10.062;2023-07-30T03:16:54;0.30;;;0.30;;
17784;SDS011;9016;53.582;10.062;2023-07-30T03:19:22;0.30;;;0.30;;
17784;SDS011;9016;53.582;10.062;2023-07-30T03:21:52;0.30;;;0.30;;
17784;SDS011;9016;53.582;10.062;2023-07-30T03:24:20;0.30;;;0.30;;
17784;SDS011;9016;53.582;10.062;2023-07-30T03:26:47;0.30;;;0.30;;
17784;SDS011;9016;53.582;10.062;2023-07-30T03:29:16;0.30;;;0.30;;
17784;SDS011;9016;53.582;10.062;2023-07-30T03:31:44;0.30;;;0.30;;
17784;SDS011;9016;53.582;10.062;2023-07-30T03:34:11;0.23;;;0.23;;
17784;SDS011;9016;53.582;10.062;2023-07-30T03:36:39;0.30;;;0.30;;
17784;SDS011;9016;53.582;10.062;2023-07-30T03:39:09;0.30;;;0.30;;
17784;SDS011;9016;53.582;10.062;2023-07-30T03:41:37;0.30;;;0.30;;
17784;SDS011;9016;53.582;10.062;2023-07-30T03:44:05;0.30;;;0.30;;
17784;SDS011;9016;53.582;10.062;2023-07-30T03:46:33;0.30;;;0.30;;
17784;SDS011;9016;53.582;10.062;2023-07-30T03:49:01;0.30;;;0.30;;
17784;SDS011;9016;53.582;10.062;2023-07-30T03:51:29;0.20;;;0.20;;
17784;SDS011;9016;53.582;10.062;2023-07-30T03:53:57;0.30;;;0.30;;
17784;SDS011;9016;53.582;10.062;2023-07-30T03:56:26;0.30;;;0.30;;
17784;SDS011;9016;53.582;10.062;2023-07-30T03:58:54;0.30;;;0.30;;
17784;SDS011;9016;53.582;10.062;2023-07-30T04:01:22;0.30;;;0.30;;
17784;SDS011;9016;53.582;10.062;2023-07-30T04:03:50;0.27;;;0.27;;
17784;SDS011;9016;53.582;10.062;2023-07-30T04:06:18;0.20;;;0.20;;
17784;SDS011;9016;53.582;10.062;2023-07-30T04:08:46;0.30;;;0.30;;
17784;SDS011;9016;53.582;10.062;2023-07-30T04:11:14;0.30;;;0.30;;
17784;SDS011;9016;53.582;10.062;2023-07-30T04:13:43;0.30;;;0.30;;
17784;SDS011;9016;53.582;10.062;2023-07-30T04:16:11;0.20;;;0.20;;
17784;SDS011;9016;53.582;10.062;2023-07-30T04:18:39;0.30;;;0.30;;
17784;SDS011;9016;53.582;10.062;2023-07-30T04:21:07;0.30;;;0.30;;
17784;SDS011;9016;53.582;10.062;2023-07-30T04:23:35;0.20;;;0.20;;
17784;SDS011;9016;53.582;10.062;2023-07-30T04:26:03;0.20;;;0.20;;
17784;SDS011;9016;53.582;10.062;2023-07-30T04:28:31;0.20;;;0.20;;
17784;SDS011;9016;53.582;10.062;2023-07-30T04:31:01;0.20;;;0.20;;
17784;SDS011;9016;53.582;10.062;2023-07-30T04:33:29;0.30;;;0.30;;
17784;SDS011;9016;53.582;10.062;2023-07-30T04:35:57;0.30;;;0.30;;
17784;SDS011;9016;53.582;10.062;2023-07-30T04:38:25;0.30;;;0.30;;
17784;SDS011;9016;53.582;10.062;2023-07-30T04:40:52;0.20;;;0.20;;
17784;SDS011;9016;53.582;10.062;2023-07-30T04:43:20;0.30;;;0.30;;
17784;SDS011;9016;53.582;10.062;2023-07-30T04:45:48;0.20;;;0.20;;
17784;SDS011;9016;53.582;10.062;2023-07-30T04:48:18;0.30;;;0.30;;
17784;SDS011;9016;53.582;10.062;2023-07-30T04:50:45;0.30;;;0.30;;
17784;SDS011;9016;53.582;10.062;2023-07-30T04:53:13;0.30;;;0.30;;
17784;SDS011;9016;53.582;10.062;2023-07-30T04:55:43;0.30;;;0.30;;
17784;SDS011;9016;53.582;10.062;2023-07-30T04:58:11;0.30;;;0.30;;
17784;SDS011;9016;53.582;10.062;2023-07-30T05:00:39;0.20;;;0.20;;
17784;SDS011;9016;53.582;10.062;2023-07-30T05:03:07;0.30;;;0.30;;
17784;SDS011;9016;53.582;10.062;2023-07-30T05:05:37;0.20;;;0.20;;
17784;SDS011;9016;53.582;10.062;2023-07-30T05:08:06;0.30;;;0.30;;
17784;SDS011;9016;53.582;10.062;2023-07-30T05:10:33;0.30;;;0.30;;
17784;SDS011;9016;53.582;10.062;2023-07-30T05:13:01;0.30;;;0.30;;
17784;SDS011;9016;53.582;10.062;2023-07-30T05:15:30;0.30;;;0.30;;
17784;SDS011;9016;53.582;10.062;2023-07-30T05:17:58;0.30;;;0.30;;
17784;SDS011;9016;53.582;10.062;2023-07-30T05:20:25;0.30;;;0.30;;
17784;SDS011;9016;53.582;10.062;2023-07-30T05:22:55;0.30;;;0.30;;
17784;SDS011;9016;53.582;10.062;2023-07-30T05:25:23;0.30;;;0.30;;
17784;SDS011;9016;53.582;10.062;2023-07-30T05:27:51;0.30;;;0.30;;
17784;SDS011;9016;53.582;10.062;2023-07-30T05:30:19;0.30;;;0.30;;
17784;SDS011;9016;53.582;10.062;2023-07-30T05:32:46;0.30;;;0.30;;
17784;SDS011;9016;53.582;10.062;2023-07-30T05:35:15;0.30;;;0.30;;
17784;SDS011;9016;53.582;10.062;2023-07-30T05:37:45;0.30;;;0.30;;
17784;SDS011;9016;53.582;10.062;2023-07-30T05:40:14;0.30;;;0.30;;
17784;SDS011;9016;53.582;10.062;2023-07-30T05:42:42;0.30;;;0.30;;
17784;SDS011;9016;53.582;10.062;2023-07-30T05:45:10;0.30;;;0.30;;
17784;SDS011;9016;53.582;10.062;2023-07-30T05:47:39;0.30;;;0.30;;
17784;SDS011;9016;53.582;10.062;2023-07-30T05:50:07;0.30;;;0.30;;
17784;SDS011;9016;53.582;10.062;2023-07-30T05:52:35;0.30;;;0.30;;
17784;SDS011;9016;53.582;10.062;2023-07-30T05:55:04;0.30;;;0.30;;
17784;SDS011;9016;53.582;10.062;2023-07-30T05:57:34;0.30;;;0.30;;
17784;SDS011;9016;53.582;10.062;2023-07-30T06:00:02;0.30;;;0.30;;
17784;SDS011;9016;53.582;10.062;2023-07-30T06:02:30;0.30;;;0.30;;
17784;SDS011;9016;53.582;10.062;2023-07-30T06:04:58;0.30;;;0.30;;
17784;SDS011;9016;53.582;10.062;2023-07-30T06:07:26;0.30;;;0.30;;
17784;SDS011;9016;53.582;10.062;2023-07-30T06:09:54;0.30;;;0.30;;
17784;SDS011;9016;53.582;10.062;2023-07-30T06:12:22;0.30;;;0.30;;
17784;SDS011;9016;53.582;10.062;2023-07-30T06:14:51;0.30;;;0.30;;
17784;SDS011;9016;53.582;10.062;2023-07-30T06:17:19;0.40;;;0.40;;
17784;SDS011;9016;53.582;10.062;2023-07-30T06:19:47;0.30;;;0.30;;
17784;SDS011;9016;53.582;10.062;2023-07-30T06:22:15;0.30;;;0.30;;
17784;SDS011;9016;53.582;10.062;2023-07-30T06:24:43;0.30;;;0.30;;
17784;SDS011;9016;53.582;10.062;2023-07-30T06:27:11;0.40;;;0.40;;
17784;SDS011;9016;53.582;10.062;2023-07-30T06:29:39;0.30;;;0.30;;
17784;SDS011;9016;53.582;10.062;2023-07-30T06:32:08;0.30;;;0.30;;
17784;SDS011;9016;53.582;10.062;2023-07-30T06:34:36;0.30;;;0.30;;
17784;SDS011;9016;53.582;10.062;2023-07-30T06:37:04;0.30;;;0.30;;
17784;SDS011;9016;53.582;10.062;2023-07-30T06:39:32;0.30;;;0.30;;
17784;SDS011;9016;53.582;10.062;2023-07-30T06:42:00;0.30;;;0.30;;
17784;SDS011;9016;53.582;10.062;2023-07-30T06:44:28;0.30;;;0.30;;
17784;SDS011;9016;53.582;10.062;2023-07-30T06:46:56;0.30;;;0.30;;
17784;SDS011;9016;53.582;10.062;2023-07-30T06:49:25;0.30;;;0.30;;
17784;SDS011;9016;53.582;10.062;2023-07-30T06:51:53;0.35;;;0.35;;
17784;SDS011;9016;53.582;10.062;2023-07-30T06:54:21;0.30;;;0.30;;
17784;SDS011;9016;53.582;10.062;2023-07-30T06:56:49;0.30;;;0.30;;
17784;SDS011;9016;53.582;10.062;2023-07-30T06:59:17;0.30;;;0.30;;
17784;SDS011;9016;53.582;10.062;2023-07-30T07:01:45;0.32;;;0.32;;
17784;SDS011;9016;53.582;10.062;2023-07-30T07:04:13;0.30;;;0.30;;
17784;SDS011;9016;53.582;10.062;2023-07-30T07:06:42;0.30;;;0.30;;
17784;SDS011;9016;53.582;10.062;2023-07-30T07:09:10;0.30;;;0.30;;
17784;SDS011;9016;53.582;10.062;2023-07-30T07:11:38;0.30;;;0.30;;
17784;SDS011;9016;53.582;10.062;2023-07-30T07:14:06;0.30;;;0.30;;
17784;SDS011;9016;53.582;10.062;2023-07-30T07:16:34;0.30;;;0.30;;
17784;SDS011;9016;53.582;10.062;2023-07-30T07:19:02;0.30;;;0.30;;
17784;SDS011;9016;53.582;10.062;2023-07-30T07:21:30;0.40;;;0.40;;
17784;SDS011;9016;53.582;10.062;2023-07-30T07:24:00;0.50;;;0.50;;
17784;SDS011;9016;53.582;10.062;2023-07-30T07:26:27;0.40;;;0.40;;
17784;SDS011;9016;53.582;10.062;2023-07-30T07:28:55;0.30;;;0.30;;
17784;SDS011;9016;53.582;10.062;2023-07-30T07:31:23;0.50;;;0.50;;
17784;SDS011;9016;53.582;10.062;2023-07-30T07:33:51;0.30;;;0.30;;
17784;SDS011;9016;53.582;10.062;2023-07-30T07:36:19;0.50;;;0.50;;
17784;SDS011;9016;53.582;10.062;2023-07-30T07:38:47;0.30;;;0.30;;
17784;SDS011;9016;53.582;10.062;2023-07-30T07:41:16;0.40;;;0.40;;
17784;SDS011;9016;53.582;10.062;2023-07-30T07:43:46;0.40;;;0.40;;
17784;SDS011;9016;53.582;10.062;2023-07-30T07:46:14;0.60;;;0.60;;
17784;SDS011;9016;53.582;10.062;2023-07-30T07:48:43;0.40;;;0.40;;
17784;SDS011;9016;53.582;10.062;2023-07-30T07:51:11;0.40;;;0.40;;
17784;SDS011;9016;53.582;10.062;2023-07-30T07:53:39;0.60;;;0.60;;
17784;SDS011;9016;53.582;10.062;2023-07-30T07:56:07;0.40;;;0.40;;
17784;SDS011;9016;53.582;10.062;2023-07-30T07:58:36;0.60;;;0.60;;
17784;SDS011;9016;53.582;10.062;2023-07-30T08:01:04;0.60;;;0.60;;
17784;SDS011;9016;53.582;10.062;2023-07-30T08:03:32;0.60;;;0.60;;
17784;SDS011;9016;53.582;10.062;2023-07-30T08:06:00;0.43;;;0.43;;
17784;SDS011;9016;53.582;10.062;2023-07-30T08:08:28;0.60;;;0.60;;
17784;SDS011;9016;53.582;10.062;2023-07-30T08:10:56;0.50;;;0.50;;
17784;SDS011;9016;53.582;10.062;2023-07-30T08:13:24;0.40;;;0.40;;
17784;SDS011;9016;53.582;10.062;2023-07-30T08:15:53;0.43;;;0.43;;
17784;SDS011;9016;53.582;10.062;2023-07-30T08:18:21;0.70;;;0.70;;
17784;SDS011;9016;53.582;10.062;2023-07-30T08:20:49;0.70;;;0.70;;
17784;SDS011;9016;53.582;10.062;2023-07-30T08:23:17;0.60;;;0.60;;
17784;SDS011;9016;53.582;10.062;2023-07-30T08:25:46;0.70;;;0.70;;
17784;SDS011;9016;53.582;10.062;2023-07-30T08:28:16;0.70;;;0.70;;
17784;SDS011;9016;53.582;10.062;2023-07-30T08:30:44;0.70;;;0.70;;
17784;SDS011;9016;53.582;10.062;2023-07-30T08:33:13;0.70;;;0.70;;
17784;SDS011;9016;53.582;10.062;2023-07-30T08:35:41;0.70;;;0.70;;
17784;SDS011;9016;53.582;10.062;2023-07-30T08:38:09;0.50;;;0.50;;
17784;SDS011;9016;53.582;10.062;2023-07-30T08:40:37;0.70;;;0.70;;
17784;SDS011;9016;53.582;10.062;2023-07-30T08:43:05;0.70;;;0.70;;
17784;SDS011;9016;53.582;10.062;2023-07-30T08:45:33;0.70;;;0.70;;
17784;SDS011;9016;53.582;10.062;2023-07-30T08:48:01;0.70;;;0.70;;
17784;SDS011;9016;53.582;10.062;2023-07-30T08:50:31;0.70;;;0.70;;
17784;SDS011;9016;53.582;10.062;2023-07-30T08:53:00;0.70;;;0.70;;
17784;SDS011;9016;53.582;10.062;2023-07-30T08:55:30;0.60;;;0.60;;
17784;SDS011;9016;53.582;10.062;2023-07-30T08:58:01;0.55;;;0.55;;
17784;SDS011;9016;53.582;10.062;2023-07-30T09:00:31;0.50;;;0.50;;
17784;SDS011;9016;53.582;10.062;2023-07-30T09:03:03;0.52;;;0.52;;
17784;SDS011;9016;53.582;10.062;2023-07-30T09:05:33;0.50;;;0.50;;
17784;SDS011;9016;53.582;10.062;2023-07-30T09:08:01;0.60;;;0.60;;
17784;SDS011;9016;53.582;10.062;2023-07-30T09:10:29;0.50;;;0.50;;
17784;SDS011;9016;53.582;10.062;2023-07-30T09:12:57;0.50;;;0.50;;
17784;SDS011;9016;53.582;10.062;2023-07-30T09:15:31;0.50;;;0.50;;
17784;SDS011;9016;53.582;10.062;2023-07-30T09:18:00;0.43;;;0.43;;
17784;SDS011;9016;53.582;10.062;2023-07-30T09:20:33;0.50;;;0.50;;
17784;SDS011;9016;53.582;10.062;2023-07-30T09:23:04;0.50;;;0.50;;
17784;SDS011;9016;53.582;10.062;2023-07-30T09:25:32;0.50;;;0.50;;
17784;SDS011;9016;53.582;10.062;2023-07-30T09:28:00;0.40;;;0.40;;
17784;SDS011;9016;53.582;10.062;2023-07-30T09:30:29;0.40;;;0.40;;
17784;SDS011;9016;53.582;10.062;2023-07-30T09:32:59;0.38;;;0.38;;
17784;SDS011;9016;53.582;10.062;2023-07-30T09:35:27;0.47;;;0.47;;
17784;SDS011;9016;53.582;10.062;2023-07-30T09:38:00;0.45;;;0.45;;
17784;SDS011;9016;53.582;10.062;2023-07-30T09:40:31;0.40;;;0.40;;
17784;SDS011;9016;53.582;10.062;2023-07-30T09:43:01;0.30;;;0.30;;
17784;SDS011;9016;53.582;10.062;2023-07-30T09:45:32;0.40;;;0.40;;
17784;SDS011;9016;53.582;10.062;2023-07-30T09:48:02;0.50;;;0.50;;
17784;SDS011;9016;53.582;10.062;2023-07-30T09:50:31;0.50;;;0.50;;
17784;SDS011;9016;53.582;10.062;2023-07-30T09:53:02;0.50;;;0.50;;
17784;SDS011;9016;53.582;10.062;2023-07-30T09:55:31;0.40;;;0.40;;
17784;SDS011;9016;53.582;10.062;2023-07-30T09:57:59;0.47;;;0.47;;
17784;SDS011;9016;53.582;10.062;2023-07-30T10:00:27;0.40;;;0.40;;
17784;SDS011;9016;53.582;10.062;2023-07-30T10:02:57;0.40;;;0.40;;
17784;SDS011;9016;53.582;10.062;2023-07-30T10:05:28;0.32;;;0.32;;
17784;SDS011;9016;53.582;10.062;2023-07-30T10:08:00;0.47;;;0.47;;
17784;SDS011;9016;53.582;10.062;2023-07-30T10:10:34;0.40;;;0.40;;
17784;SDS011;9016;53.582;10.062;2023-07-30T10:13:05;0.40;;;0.40;;
17784;SDS011;9016;53.582;10.062;2023-07-30T10:15:35;0.30;;;0.30;;
17784;SDS011;9016;53.582;10.062;2023-07-30T10:18:05;0.30;;;0.30;;
17784;SDS011;9016;53.582;10.062;2023-07-30T10:20:33;0.30;;;0.30;;
17784;SDS011;9016;53.582;10.062;2023-07-30T10:23:04;0.32;;;0.32;;
17784;SDS011;9016;53.582;10.062;2023-07-30T10:25:42;0.30;;;0.30;;
17784;SDS011;9016;53.582;10.062;2023-07-30T10:28:25;0.30;;;0.30;;
17784;SDS011;9016;53.582;10.062;2023-07-30T10:30:55;0.30;;;0.30;;
17784;SDS011;9016;53.582;10.062;2023-07-30T10:33:23;0.40;;;0.40;;
17784;SDS011;9016;53.582;10.062;2023-07-30T10:36:10;0.40;;;0.40;;
17784;SDS011;9016;53.582;10.062;2023-07-30T10:38:40;0.40;;;0.40;;
17784;SDS011;9016;53.582;10.062;2023-07-30T10:41:10;0.30;;;0.30;;
17784;SDS011;9016;53.582;10.062;2023-07-30T10:43:40;0.40;;;0.40;;
17784;SDS011;9016;53.582;10.062;2023-07-30T10:46:11;0.40;;;0.40;;
17784;SDS011;9016;53.582;10.062;2023-07-30T10:48:40;0.40;;;0.40;;
17784;SDS011;9016;53.582;10.062;2023-07-30T10:51:10;0.40;;;0.40;;
17784;SDS011;9016;53.582;10.062;2023-07-30T10:53:43;0.40;;;0.40;;
17784;SDS011;9016;53.582;10.062;2023-07-30T10:56:11;0.40;;;0.40;;
17784;SDS011;9016;53.582;10.062;2023-07-30T10:58:40;0.40;;;0.40;;
17784;SDS011;9016;53.582;10.062;2023-07-30T11:01:09;0.40;;;0.40;;
17784;SDS011;9016;53.582;10.062;2023-07-30T11:03:37;0.40;;;0.40;;
17784;SDS011;9016;53.582;10.062;2023-07-30T11:06:06;0.32;;;0.32;;
17784;SDS011;9016;53.582;10.062;2023-07-30T11:08:35;0.40;;;0.40;;
17784;SDS011;9016;53.582;10.062;2023-07-30T11:11:05;0.40;;;0.40;;
17784;SDS011;9016;53.582;10.062;2023-07-30T11:13:37;0.32;;;0.32;;
17784;SDS011;9016;53.582;10.062;2023-07-30T11:16:05;0.40;;;0.40;;
17784;SDS011;9016;53.582;10.062;2023-07-30T11:18:34;0.40;;;0.40;;
17784;SDS011;9016;53.582;10.062;2023-07-30T11:21:02;0.40;;;0.40;;
17784;SDS011;9016;53.582;10.062;2023-07-30T11:23:32;0.40;;;0.40;;
17784;SDS011;9016;53.582;10.062;2023-07-30T11:26:00;0.30;;;0.30;;
17784;SDS011;9016;53.582;10.062;2023-07-30T11:28:31;0.32;;;0.32;;
17784;SDS011;9016;53.582;10.062;2023-07-30T11:31:04;0.38;;;0.38;;
17784;SDS011;9016;53.582;10.062;2023-07-30T11:33:33;0.40;;;0.40;;
17784;SDS011;9016;53.582;10.062;2023-07-30T11:36:02;0.50;;;0.50;;
17784;SDS011;9016;53.582;10.062;2023-07-30T11:38:31;0.40;;;0.40;;
17784;SDS011;9016;53.582;10.062;2023-07-30T11:40:59;0.40;;;0.40;;
17784;SDS011;9016;53.582;10.062;2023-07-30T11:43:28;0.40;;;0.40;;
17784;SDS011;9016;53.582;10.062;2023-07-30T11:48:45;0.40;;;0.40;;
17784;SDS011;9016;53.582;10.062;2023-07-30T11:51:21;0.30;;;0.30;;
17784;SDS011;9016;53.582;10.062;2023-07-30T11:53:51;0.35;;;0.35;;
17784;SDS011;9016;53.582;10.062;2023-07-30T11:56:20;0.30;;;0.30;;
17784;SDS011;9016;53.582;10.062;2023-07-30T11:58:50;0.32;;;0.32;;
17784;SDS011;9016;53.582;10.062;2023-07-30T12:01:23;0.38;;;0.38;;
17784;SDS011;9016;53.582;10.062;2023-07-30T12:03:54;0.35;;;0.35;;
17784;SDS011;9016;53.582;10.062;2023-07-30T12:06:22;0.38;;;0.38;;
17784;SDS011;9016;53.582;10.062;2023-07-30T12:08:51;0.35;;;0.35;;
17784;SDS011;9016;53.582;10.062;2023-07-30T12:11:19;0.30;;;0.30;;
17784;SDS011;9016;53.582;10.062;2023-07-30T12:13:47;0.40;;;0.40;;
17784;SDS011;9016;53.582;10.062;2023-07-30T12:16:16;0.40;;;0.40;;
17784;SDS011;9016;53.582;10.062;2023-07-30T12:18:49;0.35;;;0.35;;
17784;SDS011;9016;53.582;10.062;2023-07-30T12:21:17;0.30;;;0.30;;
17784;SDS011;9016;53.582;10.062;2023-07-30T12:23:45;0.35;;;0.35;;
17784;SDS011;9016;53.582;10.062;2023-07-30T12:26:17;0.32;;;0.32;;
17784;SDS011;9016;53.582;10.062;2023-07-30T12:28:45;0.40;;;0.40;;
17784;SDS011;9016;53.582;10.062;2023-07-30T12:31:12;0.40;;;0.40;;
17784;SDS011;9016;53.582;10.062;2023-07-30T12:33:40;0.35;;;0.35;;
17784;SDS011;9016;53.582;10.062;2023-07-30T12:36:10;0.35;;;0.35;;
17784;SDS011;9016;53.582;10.062;2023-07-30T12:38:38;0.30;;;0.30;;
17784;SDS011;9016;53.582;10.062;2023-07-30T12:41:06;0.30;;;0.30;;
17784;SDS011;9016;53.582;10.062;2023-07-30T12:43:35;0.40;;;0.40;;
17784;SDS011;9016;53.582;10.062;2023-07-30T12:46:03;0.30;;;0.30;;
17784;SDS011;9016;53.582;10.062;2023-07-30T12:48:31;0.40;;;0.40;;
17784;SDS011;9016;53.582;10.062;2023-07-30T12:50:59;0.30;;;0.30;;
17784;SDS011;9016;53.582;10.062;2023-07-30T12:53:28;0.35;;;0.35;;
17784;SDS011;9016;53.582;10.062;2023-07-30T12:55:56;0.32;;;0.32;;
17784;SDS011;9016;53.582;10.062;2023-07-30T12:58:24;0.40;;;0.40;;
17784;SDS011;9016;53.582;10.062;2023-07-30T13:00:52;0.50;;;0.50;;
17784;SDS011;9016;53.582;10.062;2023-07-30T13:03:20;0.30;;;0.30;;
17784;SDS011;9016;53.582;10.062;2023-07-30T13:05:49;0.35;;;0.35;;
17784;SDS011;9016;53.582;10.062;2023-07-30T13:08:16;0.30;;;0.30;;
17784;SDS011;9016;53.582;10.062;2023-07-30T13:10:46;0.30;;;0.30;;
17784;SDS011;9016;53.582;10.062;2023-07-30T13:13:14;0.30;;;0.30;;
17784;SDS011;9016;53.582;10.062;2023-07-30T13:15:41;0.30;;;0.30;;
17784;SDS011;9016;53.582;10.062;2023-07-30T13:18:10;0.30;;;0.30;;
17784;SDS011;9016;53.582;10.062;2023-07-30T13:20:37;0.30;;;0.30;;
17784;SDS011;9016;53.582;10.062;2023-07-30T13:23:05;0.35;;;0.35;;
17784;SDS011;9016;53.582;10.062;2023-07-30T13:25:33;0.30;;;0.30;;
17784;SDS011;9016;53.582;10.062;2023-07-30T13:28:03;0.30;;;0.30;;
17784;SDS011;9016;53.582;10.062;2023-07-30T13:30:31;0.30;;;0.30;;
17784;SDS011;9016;53.582;10.062;2023-07-30T13:32:59;0.40;;;0.40;;
17784;SDS011;9016;53.582;10.062;2023-07-30T13:35:27;0.30;;;0.30;;
17784;SDS011;9016;53.582;10.062;2023-07-30T13:37:55;0.30;;;0.30;;
17784;SDS011;9016;53.582;10.062;2023-07-30T13:40:22;0.30;;;0.30;;
17784;SDS011;9016;53.582;10.062;2023-07-30T13:42:50;0.30;;;0.30;;
17784;SDS011;9016;53.582;10.062;2023-07-30T13:45:20;0.30;;;0.30;;
17784;SDS011;9016;53.582;10.062;2023-07-30T13:47:48;0.30;;;0.30;;
17784;SDS011;9016;53.582;10.062;2023-07-30T13:50:16;0.30;;;0.30;;
17784;SDS011;9016;53.582;10.062;2023-07-30T13:52:44;0.30;;;0.30;;
17784;SDS011;9016;53.582;10.062;2023-07-30T13:55:13;0.30;;;0.30;;
17784;SDS011;9016;53.582;10.062;2023-07-30T13:57:42;0.30;;;0.30;;
17784;SDS011;9016;53.582;10.062;2023-07-30T14:00:11;0.30;;;0.30;;
17784;SDS011;9016;53.582;10.062;2023-07-30T14:02:41;0.30;;;0.30;;
17784;SDS011;9016;53.582;10.062;2023-07-30T14:05:10;0.30;;;0.30;;
17784;SDS011;9016;53.582;10.062;2023-07-30T14:07:38;0.30;;;0.30;;
17784;SDS011;9016;53.582;10.062;2023-07-30T14:10:07;0.30;;;0.30;;
17784;SDS011;9016;53.582;10.062;2023-07-30T14:12:35;0.30;;;0.30;;
17784;SDS011;9016;53.582;10.062;2023-07-30T14:15:03;0.40;;;0.40;;
17784;SDS011;9016;53.582;10.062;2023-07-30T14:17:32;0.30;;;0.30;;
17784;SDS011;9016;53.582;10.062;2023-07-30T14:20:01;0.30;;;0.30;;
17784;SDS011;9016;53.582;10.062;2023-07-30T14:22:29;0.30;;;0.30;;
17784;SDS011;9016;53.582;10.062;2023-07-30T14:24:57;0.30;;;0.30;;
17784;SDS011;9016;53.582;10.062;2023-07-30T14:27:25;0.30;;;0.30;;
17784;SDS011;9016;53.582;10.062;2023-07-30T14:29:53;0.30;;;0.30;;
17784;SDS011;9016;53.582;10.062;2023-07-30T14:32:21;0.30;;;0.30;;
17784;SDS011;9016;53.582;10.062;2023-07-30T14:34:50;0.30;;;0.30;;
17784;SDS011;9016;53.582;10.062;2023-07-30T14:37:19;0.30;;;0.30;;
17784;SDS011;9016;53.582;10.062;2023-07-30T14:39:47;0.30;;;0.30;;
17784;SDS011;9016;53.582;10.062;2023-07-30T14:42:15;0.40;;;0.40;;
17784;SDS011;9016;53.582;10.062;2023-07-30T14:44:43;0.30;;;0.30;;
17784;SDS011;9016;53.582;10.062;2023-07-30T14:47:11;0.30;;;0.30;;
17784;SDS011;9016;53.582;10.062;2023-07-30T14:49:39;0.30;;;0.30;;
17784;SDS011;9016;53.582;10.062;2023-07-30T14:52:08;0.30;;;0.30;;
17784;SDS011;9016;53.582;10.062;2023-07-30T14:54:37;0.30;;;0.30;;
17784;SDS011;9016;53.582;10.062;2023-07-30T14:57:05;0.35;;;0.35;;
17784;SDS011;9016;53.582;10.062;2023-07-30T14:59:33;0.30;;;0.30;;